sensor_id;sensor_type;location;lat;lon;timestamp;P1;durP1;ratioP1;P2;durP2;ratioP2
72427;SDS011;60419;48.880;18.036;2023-02-28T00:01:50;15.15;;;6.63;;
72427;SDS011;60419;48.880;18.036;2023-02-28T00:04:35;9.65;;;5.50;;
72427;SDS011;60419;48.880;18.036;2023-02-28T00:07:20;17.38;;;6.95;;
72427;SDS011;60419;48.880;18.036;2023-02-28T00:10:06;11.88;;;5.55;;
72427;SDS011;60419;48.880;18.036;2023-02-28T00:12:55;13.57;;;6.57;;
72427;SDS011;60419;48.880;18.036;2023-02-28T00:15:44;12.38;;;6.88;;
72427;SDS011;60419;48.880;18.036;2023-02-28T00:18:30;19.83;;;7.53;;
72427;SDS011;60419;48.880;18.036;2023-02-28T00:21:16;15.88;;;6.65;;
72427;SDS011;60419;48.880;18.036;2023-02-28T00:24:02;13.45;;;7.13;;
72427;SDS011;60419;48.880;18.036;2023-02-28T00:26:47;17.90;;;7.78;;
72427;SDS011;60419;48.880;18.036;2023-02-28T00:29:33;15.98;;;7.95;;
72427;SDS011;60419;48.880;18.036;2023-02-28T00:32:18;17.05;;;7.38;;
72427;SDS011;60419;48.880;18.036;2023-02-28T00:35:04;16.83;;;6.72;;
72427;SDS011;60419;48.880;18.036;2023-02-28T00:37:50;14.05;;;7.28;;
72427;SDS011;60419;48.880;18.036;2023-02-28T00:40:36;14.88;;;8.23;;
72427;SDS011;60419;48.880;18.036;2023-02-28T00:43:21;15.00;;;7.35;;
72427;SDS011;60419;48.880;18.036;2023-02-28T00:46:07;15.40;;;7.55;;
72427;SDS011;60419;48.880;18.036;2023-02-28T00:48:53;14.55;;;7.18;;
72427;SDS011;60419;48.880;18.036;2023-02-28T00:51:38;13.40;;;6.97;;
72427;SDS011;60419;48.880;18.036;2023-02-28T00:54:23;18.55;;;6.50;;
72427;SDS011;60419;48.880;18.036;2023-02-28T00:57:09;17.25;;;8.93;;
72427;SDS011;60419;48.880;18.036;2023-02-28T00:59:54;13.82;;;7.65;;
72427;SDS011;60419;48.880;18.036;2023-02-28T01:02:40;13.88;;;6.97;;
72427;SDS011;60419;48.880;18.036;2023-02-28T01:05:25;14.93;;;7.18;;
72427;SDS011;60419;48.880;18.036;2023-02-28T01:08:10;16.90;;;7.70;;
72427;SDS011;60419;48.880;18.036;2023-02-28T01:10:56;13.68;;;7.47;;
72427;SDS011;60419;48.880;18.036;2023-02-28T01:13:42;14.13;;;8.02;;
72427;SDS011;60419;48.880;18.036;2023-02-28T01:16:28;16.67;;;8.32;;
72427;SDS011;60419;48.880;18.036;2023-02-28T01:19:13;14.98;;;7.10;;
72427;SDS011;60419;48.880;18.036;2023-02-28T01:22:03;15.07;;;8.02;;
72427;SDS011;60419;48.880;18.036;2023-02-28T01:24:49;15.27;;;8.00;;
72427;SDS011;60419;48.880;18.036;2023-02-28T01:27:34;16.00;;;8.02;;
72427;SDS011;60419;48.880;18.036;2023-02-28T01:30:20;19.23;;;8.02;;
72427;SDS011;60419;48.880;18.036;2023-02-28T01:33:06;13.98;;;7.78;;
72427;SDS011;60419;48.880;18.036;2023-02-28T01:36:04;14.23;;;6.82;;
72427;SDS011;60419;48.880;18.036;2023-02-28T01:38:51;16.13;;;7.47;;
72427;SDS011;60419;48.880;18.036;2023-02-28T01:41:37;13.68;;;8.00;;
72427;SDS011;60419;48.880;18.036;2023-02-28T01:47:48;12.13;;;5.78;;
72427;SDS011;60419;48.880;18.036;2023-02-28T01:50:37;16.55;;;8.20;;
72427;SDS011;60419;48.880;18.036;2023-02-28T01:53:29;12.52;;;6.65;;
72427;SDS011;60419;48.880;18.036;2023-02-28T01:56:18;14.50;;;7.78;;
72427;SDS011;60419;48.880;18.036;2023-02-28T01:59:08;18.95;;;8.05;;
72427;SDS011;60419;48.880;18.036;2023-02-28T02:01:55;13.93;;;6.75;;
72427;SDS011;60419;48.880;18.036;2023-02-28T02:04:41;14.15;;;8.48;;
72427;SDS011;60419;48.880;18.036;2023-02-28T02:07:37;15.32;;;7.85;;
72427;SDS011;60419;48.880;18.036;2023-02-28T02:10:35;17.67;;;8.70;;
72427;SDS011;60419;48.880;18.036;2023-02-28T02:16:51;19.85;;;8.57;;
72427;SDS011;60419;48.880;18.036;2023-02-28T02:23:42;17.88;;;8.65;;
72427;SDS011;60419;48.880;18.036;2023-02-28T02:32:44;18.60;;;8.10;;
72427;SDS011;60419;48.880;18.036;2023-02-28T02:35:45;17.98;;;8.23;;
72427;SDS011;60419;48.880;18.036;2023-02-28T02:44:25;18.02;;;8.10;;
72427;SDS011;60419;48.880;18.036;2023-02-28T02:47:15;15.32;;;7.80;;
72427;SDS011;60419;48.880;18.036;2023-02-28T02:50:05;18.40;;;8.95;;
72427;SDS011;60419;48.880;18.036;2023-02-28T02:52:56;18.05;;;7.93;;
72427;SDS011;60419;48.880;18.036;2023-02-28T02:55:46;20.60;;;10.07;;
72427;SDS011;60419;48.880;18.036;2023-02-28T02:58:38;20.17;;;9.30;;
72427;SDS011;60419;48.880;18.036;2023-02-28T03:01:27;16.83;;;8.50;;
72427;SDS011;60419;48.880;18.036;2023-02-28T03:04:19;18.00;;;8.45;;
72427;SDS011;60419;48.880;18.036;2023-02-28T03:07:09;22.90;;;10.77;;
72427;SDS011;60419;48.880;18.036;2023-02-28T03:09:55;22.58;;;11.52;;
72427;SDS011;60419;48.880;18.036;2023-02-28T03:12:44;17.45;;;9.10;;
72427;SDS011;60419;48.880;18.036;2023-02-28T03:31:18;16.40;;;9.50;;
72427;SDS011;60419;48.880;18.036;2023-02-28T03:37:02;19.45;;;8.73;;
72427;SDS011;60419;48.880;18.036;2023-02-28T03:39:57;17.38;;;8.98;;
72427;SDS011;60419;48.880;18.036;2023-02-28T03:42:46;16.50;;;8.57;;
72427;SDS011;60419;48.880;18.036;2023-02-28T03:45:37;19.35;;;8.93;;
72427;SDS011;60419;48.880;18.036;2023-02-28T03:48:30;17.05;;;8.77;;
72427;SDS011;60419;48.880;18.036;2023-02-28T03:51:21;19.20;;;8.88;;
72427;SDS011;60419;48.880;18.036;2023-02-28T03:54:10;16.30;;;8.82;;
72427;SDS011;60419;48.880;18.036;2023-02-28T03:57:10;16.80;;;8.55;;
72427;SDS011;60419;48.880;18.036;2023-02-28T04:00:05;14.57;;;8.82;;
72427;SDS011;60419;48.880;18.036;2023-02-28T04:02:51;15.68;;;8.13;;
72427;SDS011;60419;48.880;18.036;2023-02-28T04:05:45;18.88;;;8.25;;
72427;SDS011;60419;48.880;18.036;2023-02-28T04:08:35;15.00;;;7.75;;
72427;SDS011;60419;48.880;18.036;2023-02-28T04:11:26;17.67;;;8.70;;
72427;SDS011;60419;48.880;18.036;2023-02-28T04:14:12;17.17;;;8.50;;
72427;SDS011;60419;48.880;18.036;2023-02-28T04:16:58;13.43;;;7.22;;
72427;SDS011;60419;48.880;18.036;2023-02-28T04:19:43;17.02;;;7.75;;
72427;SDS011;60419;48.880;18.036;2023-02-28T04:22:29;17.88;;;8.52;;
72427;SDS011;60419;48.880;18.036;2023-02-28T04:25:14;16.48;;;8.13;;
72427;SDS011;60419;48.880;18.036;2023-02-28T04:27:59;15.00;;;7.78;;
72427;SDS011;60419;48.880;18.036;2023-02-28T04:30:45;15.35;;;8.35;;
72427;SDS011;60419;48.880;18.036;2023-02-28T04:33:30;18.48;;;8.63;;
72427;SDS011;60419;48.880;18.036;2023-02-28T04:36:17;19.13;;;9.18;;
72427;SDS011;60419;48.880;18.036;2023-02-28T04:39:03;18.55;;;8.73;;
72427;SDS011;60419;48.880;18.036;2023-02-28T04:41:49;18.10;;;9.25;;
72427;SDS011;60419;48.880;18.036;2023-02-28T04:44:35;18.58;;;9.27;;
72427;SDS011;60419;48.880;18.036;2023-02-28T04:47:20;19.15;;;8.50;;
72427;SDS011;60419;48.880;18.036;2023-02-28T04:50:05;16.10;;;8.43;;
72427;SDS011;60419;48.880;18.036;2023-02-28T04:52:51;19.58;;;8.80;;
72427;SDS011;60419;48.880;18.036;2023-02-28T04:55:36;18.40;;;8.93;;
72427;SDS011;60419;48.880;18.036;2023-02-28T04:58:25;14.80;;;8.32;;
72427;SDS011;60419;48.880;18.036;2023-02-28T05:01:18;17.17;;;8.73;;
72427;SDS011;60419;48.880;18.036;2023-02-28T05:04:06;17.05;;;9.27;;
72427;SDS011;60419;48.880;18.036;2023-02-28T05:06:51;14.95;;;8.13;;
72427;SDS011;60419;48.880;18.036;2023-02-28T05:09:36;17.10;;;8.43;;
72427;SDS011;60419;48.880;18.036;2023-02-28T05:12:22;14.93;;;7.80;;
72427;SDS011;60419;48.880;18.036;2023-02-28T05:15:08;17.75;;;8.60;;
72427;SDS011;60419;48.880;18.036;2023-02-28T05:17:57;20.63;;;7.55;;
72427;SDS011;60419;48.880;18.036;2023-02-28T05:20:43;18.08;;;8.95;;
72427;SDS011;60419;48.880;18.036;2023-02-28T05:23:28;17.00;;;8.43;;
72427;SDS011;60419;48.880;18.036;2023-02-28T05:26:14;19.20;;;7.70;;
72427;SDS011;60419;48.880;18.036;2023-02-28T05:28:59;18.30;;;8.90;;
72427;SDS011;60419;48.880;18.036;2023-02-28T05:31:44;18.30;;;8.68;;
72427;SDS011;60419;48.880;18.036;2023-02-28T05:34:30;15.88;;;8.20;;
72427;SDS011;60419;48.880;18.036;2023-02-28T05:37:15;14.70;;;7.63;;
72427;SDS011;60419;48.880;18.036;2023-02-28T05:40:01;18.55;;;9.07;;
72427;SDS011;60419;48.880;18.036;2023-02-28T05:42:47;16.88;;;9.05;;
72427;SDS011;60419;48.880;18.036;2023-02-28T05:45:35;19.63;;;8.65;;
72427;SDS011;60419;48.880;18.036;2023-02-28T05:48:20;17.95;;;9.05;;
72427;SDS011;60419;48.880;18.036;2023-02-28T05:51:06;18.08;;;9.25;;
72427;SDS011;60419;48.880;18.036;2023-02-28T05:53:52;17.83;;;9.90;;
72427;SDS011;60419;48.880;18.036;2023-02-28T05:56:37;16.80;;;8.60;;
72427;SDS011;60419;48.880;18.036;2023-02-28T05:59:24;17.77;;;9.90;;
72427;SDS011;60419;48.880;18.036;2023-02-28T06:02:13;18.95;;;9.73;;
72427;SDS011;60419;48.880;18.036;2023-02-28T06:05:00;17.30;;;7.50;;
72427;SDS011;60419;48.880;18.036;2023-02-28T06:07:46;23.77;;;9.65;;
72427;SDS011;60419;48.880;18.036;2023-02-28T06:10:32;19.10;;;8.60;;
72427;SDS011;60419;48.880;18.036;2023-02-28T06:13:18;24.60;;;9.73;;
72427;SDS011;60419;48.880;18.036;2023-02-28T06:16:04;21.15;;;9.57;;
72427;SDS011;60419;48.880;18.036;2023-02-28T06:18:49;22.02;;;9.48;;
72427;SDS011;60419;48.880;18.036;2023-02-28T06:21:35;19.30;;;10.23;;
72427;SDS011;60419;48.880;18.036;2023-02-28T06:24:21;19.33;;;9.73;;
72427;SDS011;60419;48.880;18.036;2023-02-28T06:27:08;22.20;;;10.20;;
72427;SDS011;60419;48.880;18.036;2023-02-28T06:29:54;22.80;;;10.13;;
72427;SDS011;60419;48.880;18.036;2023-02-28T06:32:40;21.67;;;10.57;;
72427;SDS011;60419;48.880;18.036;2023-02-28T06:35:25;22.48;;;11.68;;
72427;SDS011;60419;48.880;18.036;2023-02-28T06:38:11;18.25;;;9.73;;
72427;SDS011;60419;48.880;18.036;2023-02-28T06:40:57;23.58;;;10.25;;
72427;SDS011;60419;48.880;18.036;2023-02-28T06:43:43;17.50;;;8.70;;
72427;SDS011;60419;48.880;18.036;2023-02-28T06:46:29;20.48;;;10.20;;
72427;SDS011;60419;48.880;18.036;2023-02-28T06:49:14;20.55;;;9.68;;
72427;SDS011;60419;48.880;18.036;2023-02-28T06:52:00;19.77;;;9.50;;
72427;SDS011;60419;48.880;18.036;2023-02-28T06:54:46;24.75;;;10.55;;
72427;SDS011;60419;48.880;18.036;2023-02-28T06:57:32;22.52;;;10.15;;
72427;SDS011;60419;48.880;18.036;2023-02-28T07:00:18;19.20;;;10.18;;
72427;SDS011;60419;48.880;18.036;2023-02-28T07:03:04;24.92;;;11.00;;
72427;SDS011;60419;48.880;18.036;2023-02-28T07:05:49;17.75;;;10.05;;
72427;SDS011;60419;48.880;18.036;2023-02-28T07:08:35;19.65;;;10.40;;
72427;SDS011;60419;48.880;18.036;2023-02-28T07:11:21;22.67;;;10.38;;
72427;SDS011;60419;48.880;18.036;2023-02-28T07:14:10;20.35;;;9.85;;
72427;SDS011;60419;48.880;18.036;2023-02-28T07:16:55;23.30;;;9.88;;
72427;SDS011;60419;48.880;18.036;2023-02-28T07:19:41;22.77;;;11.02;;
72427;SDS011;60419;48.880;18.036;2023-02-28T07:22:26;23.60;;;10.50;;
72427;SDS011;60419;48.880;18.036;2023-02-28T07:25:11;19.50;;;9.68;;
72427;SDS011;60419;48.880;18.036;2023-02-28T07:27:56;17.92;;;9.70;;
72427;SDS011;60419;48.880;18.036;2023-02-28T07:30:43;24.42;;;11.50;;
72427;SDS011;60419;48.880;18.036;2023-02-28T07:33:29;24.10;;;10.82;;
72427;SDS011;60419;48.880;18.036;2023-02-28T07:36:15;26.08;;;12.10;;
72427;SDS011;60419;48.880;18.036;2023-02-28T07:39:03;22.98;;;10.65;;
72427;SDS011;60419;48.880;18.036;2023-02-28T07:41:49;23.17;;;10.93;;
72427;SDS011;60419;48.880;18.036;2023-02-28T07:44:34;21.80;;;11.63;;
72427;SDS011;60419;48.880;18.036;2023-02-28T07:47:20;20.55;;;10.88;;
72427;SDS011;60419;48.880;18.036;2023-02-28T07:50:06;22.27;;;11.55;;
72427;SDS011;60419;48.880;18.036;2023-02-28T07:52:53;27.90;;;12.07;;
72427;SDS011;60419;48.880;18.036;2023-02-28T07:55:38;25.70;;;13.13;;
72427;SDS011;60419;48.880;18.036;2023-02-28T07:58:23;21.27;;;10.73;;
72427;SDS011;60419;48.880;18.036;2023-02-28T08:01:10;20.75;;;10.15;;
72427;SDS011;60419;48.880;18.036;2023-02-28T08:03:56;23.00;;;10.65;;
72427;SDS011;60419;48.880;18.036;2023-02-28T08:06:42;24.77;;;10.98;;
72427;SDS011;60419;48.880;18.036;2023-02-28T08:09:27;23.42;;;11.20;;
72427;SDS011;60419;48.880;18.036;2023-02-28T08:12:12;26.90;;;11.73;;
72427;SDS011;60419;48.880;18.036;2023-02-28T08:14:58;21.90;;;9.88;;
72427;SDS011;60419;48.880;18.036;2023-02-28T08:17:43;21.40;;;10.82;;
72427;SDS011;60419;48.880;18.036;2023-02-28T08:20:28;17.00;;;9.75;;
72427;SDS011;60419;48.880;18.036;2023-02-28T08:23:14;20.33;;;9.57;;
72427;SDS011;60419;48.880;18.036;2023-02-28T08:25:59;20.02;;;10.32;;
72427;SDS011;60419;48.880;18.036;2023-02-28T08:28:44;17.73;;;9.68;;
72427;SDS011;60419;48.880;18.036;2023-02-28T08:31:30;16.70;;;8.80;;
72427;SDS011;60419;48.880;18.036;2023-02-28T08:34:16;17.52;;;9.18;;
72427;SDS011;60419;48.880;18.036;2023-02-28T08:37:02;16.95;;;9.18;;
72427;SDS011;60419;48.880;18.036;2023-02-28T08:39:47;22.30;;;9.77;;
72427;SDS011;60419;48.880;18.036;2023-02-28T08:42:32;18.40;;;9.25;;
72427;SDS011;60419;48.880;18.036;2023-02-28T08:45:18;19.08;;;9.27;;
72427;SDS011;60419;48.880;18.036;2023-02-28T08:48:03;18.25;;;9.38;;
72427;SDS011;60419;48.880;18.036;2023-02-28T08:50:58;18.02;;;9.55;;
72427;SDS011;60419;48.880;18.036;2023-02-28T08:53:45;34.65;;;9.57;;
72427;SDS011;60419;48.880;18.036;2023-02-28T08:56:30;18.33;;;9.40;;
72427;SDS011;60419;48.880;18.036;2023-02-28T08:59:16;20.95;;;10.60;;
72427;SDS011;60419;48.880;18.036;2023-02-28T09:02:01;19.88;;;9.77;;
72427;SDS011;60419;48.880;18.036;2023-02-28T09:04:47;18.73;;;9.68;;
72427;SDS011;60419;48.880;18.036;2023-02-28T09:07:33;19.80;;;10.48;;
72427;SDS011;60419;48.880;18.036;2023-02-28T09:10:18;18.55;;;9.55;;
72427;SDS011;60419;48.880;18.036;2023-02-28T09:13:05;20.98;;;8.85;;
72427;SDS011;60419;48.880;18.036;2023-02-28T09:15:52;18.50;;;9.90;;
72427;SDS011;60419;48.880;18.036;2023-02-28T09:18:38;15.73;;;8.65;;
72427;SDS011;60419;48.880;18.036;2023-02-28T09:21:24;20.90;;;9.10;;
72427;SDS011;60419;48.880;18.036;2023-02-28T09:24:10;17.65;;;9.07;;
72427;SDS011;60419;48.880;18.036;2023-02-28T09:26:58;15.23;;;8.38;;
72427;SDS011;60419;48.880;18.036;2023-02-28T09:29:43;15.27;;;7.47;;
72427;SDS011;60419;48.880;18.036;2023-02-28T09:32:29;15.55;;;7.85;;
72427;SDS011;60419;48.880;18.036;2023-02-28T09:35:14;13.75;;;6.85;;
72427;SDS011;60419;48.880;18.036;2023-02-28T09:38:01;16.90;;;8.43;;
72427;SDS011;60419;48.880;18.036;2023-02-28T09:40:51;17.05;;;8.75;;
72427;SDS011;60419;48.880;18.036;2023-02-28T09:43:40;12.73;;;7.53;;
72427;SDS011;60419;48.880;18.036;2023-02-28T09:46:38;16.98;;;7.93;;
72427;SDS011;60419;48.880;18.036;2023-02-28T09:49:39;14.63;;;7.75;;
72427;SDS011;60419;48.880;18.036;2023-02-28T09:52:29;15.05;;;8.10;;
72427;SDS011;60419;48.880;18.036;2023-02-28T09:55:29;16.08;;;7.97;;
72427;SDS011;60419;48.880;18.036;2023-02-28T10:04:40;13.70;;;7.60;;
72427;SDS011;60419;48.880;18.036;2023-02-28T10:10:39;13.63;;;7.72;;
72427;SDS011;60419;48.880;18.036;2023-02-28T10:13:29;15.48;;;7.70;;
72427;SDS011;60419;48.880;18.036;2023-02-28T10:16:22;14.68;;;7.28;;
72427;SDS011;60419;48.880;18.036;2023-02-28T10:19:16;13.30;;;7.13;;
72427;SDS011;60419;48.880;18.036;2023-02-28T10:25:21;13.93;;;7.65;;
72427;SDS011;60419;48.880;18.036;2023-02-28T10:28:14;14.32;;;7.70;;
72427;SDS011;60419;48.880;18.036;2023-02-28T10:31:02;10.90;;;6.43;;
72427;SDS011;60419;48.880;18.036;2023-02-28T10:33:48;11.88;;;6.88;;
72427;SDS011;60419;48.880;18.036;2023-02-28T10:36:33;13.27;;;7.35;;
72427;SDS011;60419;48.880;18.036;2023-02-28T10:39:38;15.77;;;7.93;;
72427;SDS011;60419;48.880;18.036;2023-02-28T10:42:26;13.05;;;7.43;;
72427;SDS011;60419;48.880;18.036;2023-02-28T10:45:14;11.45;;;7.07;;
72427;SDS011;60419;48.880;18.036;2023-02-28T10:50:59;12.57;;;6.63;;
72427;SDS011;60419;48.880;18.036;2023-02-28T10:56:33;13.77;;;6.65;;
72427;SDS011;60419;48.880;18.036;2023-02-28T10:59:29;13.90;;;7.60;;
72427;SDS011;60419;48.880;18.036;2023-02-28T11:02:32;13.48;;;7.53;;
72427;SDS011;60419;48.880;18.036;2023-02-28T11:05:27;13.45;;;7.20;;
72427;SDS011;60419;48.880;18.036;2023-02-28T11:11:03;16.10;;;7.45;;
72427;SDS011;60419;48.880;18.036;2023-02-28T11:13:54;15.00;;;7.40;;
72427;SDS011;60419;48.880;18.036;2023-02-28T11:16:42;12.73;;;7.22;;
72427;SDS011;60419;48.880;18.036;2023-02-28T11:19:38;14.45;;;7.55;;
72427;SDS011;60419;48.880;18.036;2023-02-28T11:22:27;16.17;;;9.00;;
72427;SDS011;60419;48.880;18.036;2023-02-28T11:25:31;13.80;;;8.63;;
72427;SDS011;60419;48.880;18.036;2023-02-28T11:31:20;14.70;;;8.25;;
72427;SDS011;60419;48.880;18.036;2023-02-28T11:34:23;15.55;;;7.65;;
72427;SDS011;60419;48.880;18.036;2023-02-28T11:37:13;11.90;;;6.35;;
72427;SDS011;60419;48.880;18.036;2023-02-28T11:40:01;11.30;;;6.55;;
72427;SDS011;60419;48.880;18.036;2023-02-28T11:42:57;11.80;;;6.78;;
72427;SDS011;60419;48.880;18.036;2023-02-28T11:49:01;12.77;;;6.90;;
72427;SDS011;60419;48.880;18.036;2023-02-28T11:51:54;14.40;;;6.93;;
72427;SDS011;60419;48.880;18.036;2023-02-28T11:55:16;14.52;;;7.25;;
72427;SDS011;60419;48.880;18.036;2023-02-28T12:11:03;12.57;;;7.07;;
72427;SDS011;60419;48.880;18.036;2023-02-28T12:26:17;12.80;;;7.50;;
72427;SDS011;60419;48.880;18.036;2023-02-28T12:32:05;14.23;;;7.85;;
72427;SDS011;60419;48.880;18.036;2023-02-28T12:35:16;12.70;;;6.97;;
72427;SDS011;60419;48.880;18.036;2023-02-28T12:38:21;11.70;;;7.30;;
72427;SDS011;60419;48.880;18.036;2023-02-28T12:41:12;14.77;;;7.40;;
72427;SDS011;60419;48.880;18.036;2023-02-28T12:44:03;13.40;;;7.53;;
72427;SDS011;60419;48.880;18.036;2023-02-28T12:46:54;14.90;;;7.70;;
72427;SDS011;60419;48.880;18.036;2023-02-28T12:49:45;14.00;;;8.23;;
72427;SDS011;60419;48.880;18.036;2023-02-28T12:55:52;16.52;;;8.18;;
72427;SDS011;60419;48.880;18.036;2023-02-28T12:58:52;11.77;;;7.25;;
72427;SDS011;60419;48.880;18.036;2023-02-28T13:04:55;15.05;;;8.15;;
72427;SDS011;60419;48.880;18.036;2023-02-28T13:11:06;12.75;;;7.50;;
72427;SDS011;60419;48.880;18.036;2023-02-28T13:14:04;12.80;;;7.38;;
72427;SDS011;60419;48.880;18.036;2023-02-28T13:22:43;13.65;;;8.05;;
72427;SDS011;60419;48.880;18.036;2023-02-28T13:28:56;12.75;;;7.53;;
72427;SDS011;60419;48.880;18.036;2023-02-28T13:37:44;13.02;;;7.88;;
72427;SDS011;60419;48.880;18.036;2023-02-28T13:40:33;14.18;;;8.77;;
72427;SDS011;60419;48.880;18.036;2023-02-28T13:43:24;14.98;;;7.63;;
72427;SDS011;60419;48.880;18.036;2023-02-28T13:49:34;12.95;;;7.63;;
72427;SDS011;60419;48.880;18.036;2023-02-28T13:52:22;12.82;;;7.65;;
72427;SDS011;60419;48.880;18.036;2023-02-28T13:55:14;13.63;;;7.90;;
72427;SDS011;60419;48.880;18.036;2023-02-28T13:58:35;16.38;;;9.48;;
72427;SDS011;60419;48.880;18.036;2023-02-28T14:07:48;13.20;;;8.68;;
72427;SDS011;60419;48.880;18.036;2023-02-28T14:10:42;17.02;;;8.15;;
72427;SDS011;60419;48.880;18.036;2023-02-28T14:13:38;14.63;;;8.25;;
72427;SDS011;60419;48.880;18.036;2023-02-28T14:16:43;15.70;;;8.13;;
72427;SDS011;60419;48.880;18.036;2023-02-28T14:19:31;13.05;;;7.90;;
72427;SDS011;60419;48.880;18.036;2023-02-28T14:32:06;14.32;;;8.52;;
72427;SDS011;60419;48.880;18.036;2023-02-28T14:38:18;15.13;;;7.57;;
72427;SDS011;60419;48.880;18.036;2023-02-28T14:41:12;11.75;;;7.55;;
72427;SDS011;60419;48.880;18.036;2023-02-28T14:44:02;14.88;;;8.65;;
72427;SDS011;60419;48.880;18.036;2023-02-28T14:46:59;13.90;;;8.13;;
72427;SDS011;60419;48.880;18.036;2023-02-28T14:49:51;15.95;;;8.18;;
72427;SDS011;60419;48.880;18.036;2023-02-28T14:52:36;17.75;;;8.80;;
72427;SDS011;60419;48.880;18.036;2023-02-28T14:55:24;16.40;;;8.13;;
72427;SDS011;60419;48.880;18.036;2023-02-28T14:58:19;12.98;;;7.88;;
72427;SDS011;60419;48.880;18.036;2023-02-28T15:01:10;13.07;;;7.68;;
72427;SDS011;60419;48.880;18.036;2023-02-28T15:03:59;14.25;;;7.72;;
72427;SDS011;60419;48.880;18.036;2023-02-28T15:07:13;11.98;;;7.70;;
72427;SDS011;60419;48.880;18.036;2023-02-28T15:13:14;13.00;;;7.53;;
72427;SDS011;60419;48.880;18.036;2023-02-28T15:16:01;13.68;;;8.18;;
72427;SDS011;60419;48.880;18.036;2023-02-28T15:18:50;17.17;;;8.23;;
72427;SDS011;60419;48.880;18.036;2023-02-28T15:21:38;13.55;;;7.97;;
72427;SDS011;60419;48.880;18.036;2023-02-28T15:27:29;12.90;;;7.80;;
72427;SDS011;60419;48.880;18.036;2023-02-28T15:30:21;13.10;;;8.07;;
72427;SDS011;60419;48.880;18.036;2023-02-28T15:36:09;14.05;;;7.72;;
72427;SDS011;60419;48.880;18.036;2023-02-28T15:38:59;13.75;;;8.07;;
72427;SDS011;60419;48.880;18.036;2023-02-28T15:41:45;13.88;;;7.45;;
72427;SDS011;60419;48.880;18.036;2023-02-28T15:44:33;14.93;;;7.50;;
72427;SDS011;60419;48.880;18.036;2023-02-28T15:47:23;12.75;;;7.82;;
72427;SDS011;60419;48.880;18.036;2023-02-28T15:50:12;14.00;;;8.23;;
72427;SDS011;60419;48.880;18.036;2023-02-28T15:52:58;14.20;;;8.23;;
72427;SDS011;60419;48.880;18.036;2023-02-28T15:55:48;16.55;;;7.85;;
72427;SDS011;60419;48.880;18.036;2023-02-28T15:58:38;13.63;;;8.32;;
72427;SDS011;60419;48.880;18.036;2023-02-28T16:01:24;13.35;;;7.13;;
72427;SDS011;60419;48.880;18.036;2023-02-28T16:04:17;11.65;;;6.32;;
72427;SDS011;60419;48.880;18.036;2023-02-28T16:07:05;18.23;;;8.90;;
72427;SDS011;60419;48.880;18.036;2023-02-28T16:09:57;60.42;;;25.88;;
72427;SDS011;60419;48.880;18.036;2023-02-28T16:12:42;50.45;;;21.17;;
72427;SDS011;60419;48.880;18.036;2023-02-28T16:15:28;19.40;;;10.25;;
72427;SDS011;60419;48.880;18.036;2023-02-28T16:18:16;28.45;;;14.43;;
72427;SDS011;60419;48.880;18.036;2023-02-28T16:21:01;22.08;;;12.20;;
72427;SDS011;60419;48.880;18.036;2023-02-28T16:23:46;20.95;;;11.07;;
72427;SDS011;60419;48.880;18.036;2023-02-28T16:26:31;14.88;;;7.63;;
72427;SDS011;60419;48.880;18.036;2023-02-28T16:29:22;18.90;;;10.52;;
72427;SDS011;60419;48.880;18.036;2023-02-28T16:35:05;21.43;;;12.40;;
72427;SDS011;60419;48.880;18.036;2023-02-28T16:37:55;22.02;;;11.68;;
72427;SDS011;60419;48.880;18.036;2023-02-28T16:40:40;16.58;;;9.57;;
72427;SDS011;60419;48.880;18.036;2023-02-28T16:43:26;25.40;;;10.07;;
72427;SDS011;60419;48.880;18.036;2023-02-28T16:46:12;16.15;;;9.52;;
72427;SDS011;60419;48.880;18.036;2023-02-28T16:48:58;15.50;;;8.27;;
72427;SDS011;60419;48.880;18.036;2023-02-28T16:51:43;17.35;;;9.88;;
72427;SDS011;60419;48.880;18.036;2023-02-28T16:54:28;18.48;;;9.52;;
72427;SDS011;60419;48.880;18.036;2023-02-28T16:57:18;25.60;;;12.48;;
72427;SDS011;60419;48.880;18.036;2023-02-28T17:00:08;17.92;;;10.45;;
72427;SDS011;60419;48.880;18.036;2023-02-28T17:02:58;19.77;;;10.98;;
72427;SDS011;60419;48.880;18.036;2023-02-28T17:05:47;24.88;;;12.35;;
72427;SDS011;60419;48.880;18.036;2023-02-28T17:08:32;19.08;;;10.30;;
72427;SDS011;60419;48.880;18.036;2023-02-28T17:11:18;20.67;;;11.05;;
72427;SDS011;60419;48.880;18.036;2023-02-28T17:14:04;20.63;;;11.07;;
72427;SDS011;60419;48.880;18.036;2023-02-28T17:16:50;25.25;;;13.32;;
72427;SDS011;60419;48.880;18.036;2023-02-28T17:19:35;24.85;;;13.13;;
72427;SDS011;60419;48.880;18.036;2023-02-28T17:22:23;23.83;;;13.07;;
72427;SDS011;60419;48.880;18.036;2023-02-28T17:25:10;23.30;;;13.00;;
72427;SDS011;60419;48.880;18.036;2023-02-28T17:27:56;22.30;;;12.50;;
72427;SDS011;60419;48.880;18.036;2023-02-28T17:30:41;24.38;;;12.55;;
72427;SDS011;60419;48.880;18.036;2023-02-28T17:33:31;27.07;;;12.83;;
72427;SDS011;60419;48.880;18.036;2023-02-28T17:36:24;21.80;;;11.52;;
72427;SDS011;60419;48.880;18.036;2023-02-28T17:39:11;21.98;;;11.25;;
72427;SDS011;60419;48.880;18.036;2023-02-28T17:41:58;26.88;;;11.15;;
72427;SDS011;60419;48.880;18.036;2023-02-28T17:44:44;28.38;;;10.77;;
72427;SDS011;60419;48.880;18.036;2023-02-28T17:47:29;21.38;;;9.90;;
72427;SDS011;60419;48.880;18.036;2023-02-28T17:50:18;22.67;;;10.00;;
72427;SDS011;60419;48.880;18.036;2023-02-28T17:53:06;22.60;;;10.40;;
72427;SDS011;60419;48.880;18.036;2023-02-28T17:55:51;20.77;;;10.65;;
72427;SDS011;60419;48.880;18.036;2023-02-28T17:58:36;26.63;;;11.00;;
72427;SDS011;60419;48.880;18.036;2023-02-28T18:01:22;23.48;;;11.18;;
72427;SDS011;60419;48.880;18.036;2023-02-28T18:04:10;31.90;;;13.27;;
72427;SDS011;60419;48.880;18.036;2023-02-28T18:06:55;33.47;;;17.55;;
72427;SDS011;60419;48.880;18.036;2023-02-28T18:09:44;34.67;;;16.10;;
72427;SDS011;60419;48.880;18.036;2023-02-28T18:12:30;32.72;;;13.18;;
72427;SDS011;60419;48.880;18.036;2023-02-28T18:15:16;26.52;;;13.93;;
72427;SDS011;60419;48.880;18.036;2023-02-28T18:18:05;22.85;;;12.88;;
72427;SDS011;60419;48.880;18.036;2023-02-28T18:20:51;27.13;;;14.30;;
72427;SDS011;60419;48.880;18.036;2023-02-28T18:23:38;24.90;;;12.23;;
72427;SDS011;60419;48.880;18.036;2023-02-28T18:26:31;19.30;;;10.68;;
72427;SDS011;60419;48.880;18.036;2023-02-28T18:29:23;19.15;;;10.40;;
72427;SDS011;60419;48.880;18.036;2023-02-28T18:32:10;18.30;;;10.23;;
72427;SDS011;60419;48.880;18.036;2023-02-28T18:34:56;20.85;;;10.82;;
72427;SDS011;60419;48.880;18.036;2023-02-28T18:37:41;23.17;;;13.35;;
72427;SDS011;60419;48.880;18.036;2023-02-28T18:40:27;24.65;;;13.40;;
72427;SDS011;60419;48.880;18.036;2023-02-28T18:43:12;20.38;;;11.68;;
72427;SDS011;60419;48.880;18.036;2023-02-28T18:46:01;22.92;;;11.93;;
72427;SDS011;60419;48.880;18.036;2023-02-28T18:48:57;22.65;;;11.55;;
72427;SDS011;60419;48.880;18.036;2023-02-28T18:51:43;20.17;;;11.32;;
72427;SDS011;60419;48.880;18.036;2023-02-28T18:54:30;21.92;;;12.60;;
72427;SDS011;60419;48.880;18.036;2023-02-28T18:57:15;23.20;;;12.25;;
72427;SDS011;60419;48.880;18.036;2023-02-28T19:00:00;24.65;;;14.13;;